Time;durP1;ratioP1;P1;durP2;ratioP2;P2;SDS_P1;SDS_P2;PMS_P1;PMS_P2;Temp;Humidity;BMP_temperature;BMP_pressure;BME280_temperature;BME280_humidity;BME280_pressure;Samples;Min_cycle;Max_cycle;Signal;HPM_P1;HPM_P2
2022/08/15 00:02:21;;;;;;;13.30;4.88;;;;;;;;;;5107704;28;20055;-42
2022/08/15 00:04:46;;;;;;;11.38;3.60;;;;;;;;;;5108688;28;20048;-42
2022/08/15 00:07:12;;;;;;;11.05;6.35;;;;;;;;;;5107598;27;20044;-41
2022/08/15 00:09:38;;;;;;;18.92;4.85;;;;;;;;;;5109041;28;20147;-42
2022/08/15 00:12:03;;;;;;;7.93;4.47;;;;;;;;;;5109371;28;20123;-43
2022/08/15 00:14:30;;;;;;;15.13;4.32;;;;;;;;;;5106461;28;20564;-40
2022/08/15 00:16:56;;;;;;;9.07;4.35;;;;;;;;;;5108937;28;20085;-41
2022/08/15 00:19:24;;;;;;;27.95;6.90;;;;;;;;;;5109306;28;20108;-41
2022/08/15 00:21:54;;;;;;;15.23;3.40;;;;;;;;;;5108639;28;20050;-41
2022/08/15 00:24:21;;;;;;;10.88;4.35;;;;;;;;;;5107419;28;20134;-40
2022/08/15 00:26:50;;;;;;;14.02;4.70;;;;;;;;;;5108956;28;20038;-41
2022/08/15 00:29:17;;;;;;;10.23;3.33;;;;;;;;;;5106352;28;20048;-41
2022/08/15 00:31:42;;;;;;;14.20;3.88;;;;;;;;;;5106509;28;20275;-42
2022/08/15 00:34:11;;;;;;;7.63;3.75;;;;;;;;;;5106209;28;20669;-42
2022/08/15 00:36:36;;;;;;;13.43;4.50;;;;;;;;;;5107808;28;20177;-42
2022/08/15 00:39:04;;;;;;;17.92;5.07;;;;;;;;;;5108185;28;20558;-41
2022/08/15 00:41:41;;;;;;;15.75;4.57;;;;;;;;;;5107378;28;20062;-43
2022/08/15 00:44:06;;;;;;;24.08;4.80;;;;;;;;;;5108171;28;20047;-41
2022/08/15 00:46:32;;;;;;;9.52;3.47;;;;;;;;;;5107452;27;20595;-44
2022/08/15 00:48:57;;;;;;;20.00;5.07;;;;;;;;;;5108614;28;20503;-42
2022/08/15 00:51:27;;;;;;;15.68;4.47;;;;;;;;;;5108321;28;20426;-41
2022/08/15 00:54:13;;;;;;;11.60;2.90;;;;;;;;;;5107313;28;20063;-41
2022/08/15 00:56:41;;;;;;;15.85;3.85;;;;;;;;;;5107658;28;20039;-41
2022/08/15 00:59:08;;;;;;;14.55;4.53;;;;;;;;;;5107206;28;20093;-42
2022/08/15 01:01:34;;;;;;;20.75;4.43;;;;;;;;;;5103369;28;20458;-42
2022/08/15 01:03:59;;;;;;;12.90;5.05;;;;;;;;;;5107161;28;20051;-42
2022/08/15 01:06:25;;;;;;;16.88;4.25;;;;;;;;;;5107816;28;20145;-41
2022/08/15 01:08:51;;;;;;;10.27;3.53;;;;;;;;;;5108167;28;20047;-43
2022/08/15 01:11:22;;;;;;;26.60;6.18;;;;;;;;;;5104275;28;20585;-40
2022/08/15 01:13:48;;;;;;;27.83;5.10;;;;;;;;;;5103900;28;20071;-41
2022/08/15 01:16:14;;;;;;;19.95;3.92;;;;;;;;;;5106369;28;20047;-49
2022/08/15 01:18:39;;;;;;;11.98;4.30;;;;;;;;;;5107163;28;20043;-42
2022/08/15 01:21:11;;;;;;;16.95;5.38;;;;;;;;;;5106228;28;20048;-41
2022/08/15 01:23:36;;;;;;;7.75;3.83;;;;;;;;;;5105325;28;20039;-44
2022/08/15 01:26:04;;;;;;;13.38;3.83;;;;;;;;;;5107318;28;20047;-42
2022/08/15 01:28:35;;;;;;;14.10;4.07;;;;;;;;;;5105328;28;20089;-41
2022/08/15 01:31:00;;;;;;;;;;;;;;;;;;5107159;28;20104;-41
2022/08/15 01:33:26;;;;;;;17.58;3.75;;;;;;;;;;5105660;28;19911;-42
2022/08/15 01:35:54;;;;;;;16.48;3.72;;;;;;;;;;5108084;28;20051;-41
2022/08/15 01:38:19;;;;;;;11.35;3.45;;;;;;;;;;5105382;28;20126;-42
2022/08/15 01:40:47;;;;;;;7.65;3.75;;;;;;;;;;5104833;28;20127;-41
2022/08/15 01:43:16;;;;;;;9.90;4.15;;;;;;;;;;5105872;28;20065;-41
2022/08/15 01:45:43;;;;;;;11.88;4.00;;;;;;;;;;5107021;28;20055;-40
2022/08/15 01:48:08;;;;;;;13.07;3.13;;;;;;;;;;5107471;28;20047;-48
2022/08/15 01:50:35;;;;;;;15.80;3.85;;;;;;;;;;5107253;28;20064;-45
2022/08/15 01:53:00;;;;;;;5.18;1.88;;;;;;;;;;5105306;28;20043;-44
2022/08/15 01:55:29;;;;;;;10.73;4.60;;;;;;;;;;5107334;28;20407;-45
2022/08/15 01:57:54;;;;;;;14.38;4.65;;;;;;;;;;5106639;28;20058;-48
2022/08/15 02:00:20;;;;;;;13.02;3.63;;;;;;;;;;5106764;28;20414;-46
2022/08/15 02:02:46;;;;;;;11.13;3.92;;;;;;;;;;5106815;28;20070;-45
2022/08/15 02:05:11;;;;;;;13.35;5.43;;;;;;;;;;5106827;28;20134;-46
2022/08/15 02:07:37;;;;;;;12.65;4.75;;;;;;;;;;5106418;28;20495;-50
2022/08/15 02:10:04;;;;;;;23.55;5.65;;;;;;;;;;5106870;28;20411;-45
2022/08/15 02:12:32;;;;;;;22.70;5.20;;;;;;;;;;5106015;28;20692;-47
2022/08/15 02:14:59;;;;;;;27.83;5.13;;;;;;;;;;5105048;28;20043;-41
2022/08/15 02:17:25;;;;;;;12.38;4.00;;;;;;;;;;5105223;28;20070;-44
2022/08/15 02:19:51;;;;;;;11.48;4.53;;;;;;;;;;5106134;28;20051;-43
2022/08/15 02:22:17;;;;;;;28.38;5.10;;;;;;;;;;5106573;28;20062;-44
2022/08/15 02:24:43;;;;;;;15.35;5.53;;;;;;;;;;5104749;28;20058;-46
2022/08/15 02:27:08;;;;;;;13.35;2.90;;;;;;;;;;5105909;28;20059;-45
2022/08/15 02:29:34;;;;;;;13.68;4.10;;;;;;;;;;5105666;28;20043;-41
2022/08/15 02:32:03;;;;;;;10.63;4.78;;;;;;;;;;5106490;28;20487;-45
2022/08/15 02:34:28;;;;;;;6.30;3.10;;;;;;;;;;5104340;28;20049;-41
2022/08/15 02:36:54;;;;;;;14.93;4.07;;;;;;;;;;5106310;28;20044;-44
2022/08/15 02:39:19;;;;;;;14.32;3.80;;;;;;;;;;5105674;28;20623;-43
2022/08/15 02:41:49;;;;;;;11.13;4.95;;;;;;;;;;5105135;28;20047;-44
2022/08/15 02:44:16;;;;;;;20.73;3.90;;;;;;;;;;5106376;28;20059;-45
2022/08/15 02:46:43;;;;;;;8.88;4.47;;;;;;;;;;5104573;28;20919;-44
2022/08/15 02:49:11;;;;;;;14.07;3.75;;;;;;;;;;5105104;28;20075;-44
2022/08/15 02:51:37;;;;;;;16.20;4.32;;;;;;;;;;5104230;28;20607;-44
2022/08/15 02:54:05;;;;;;;11.80;4.55;;;;;;;;;;5107485;28;20044;-41
2022/08/15 02:56:31;;;;;;;15.07;3.70;;;;;;;;;;5109981;28;20043;-40
2022/08/15 02:58:57;;;;;;;8.05;3.88;;;;;;;;;;5110254;28;20040;-49
2022/08/15 03:01:23;;;;;;;30.88;4.47;;;;;;;;;;5107048;28;20514;-43
2022/08/15 03:03:49;;;;;;;9.20;3.67;;;;;;;;;;5108175;28;20541;-41
2022/08/15 03:06:16;;;;;;;20.48;4.75;;;;;;;;;;5106279;28;20040;-46
2022/08/15 03:08:41;;;;;;;13.82;3.50;;;;;;;;;;5108602;28;20123;-46
2022/08/15 03:11:07;;;;;;;9.82;3.47;;;;;;;;;;5110493;28;20138;-43
2022/08/15 03:13:33;;;;;;;15.73;5.03;;;;;;;;;;5109714;28;20119;-41
2022/08/15 03:15:59;;;;;;;16.73;7.15;;;;;;;;;;5107150;28;20116;-47
2022/08/15 03:18:26;;;;;;;16.58;4.70;;;;;;;;;;5108842;28;20051;-43
2022/08/15 03:20:52;;;;;;;19.10;4.68;;;;;;;;;;5110229;28;20047;-42
2022/08/15 03:23:21;;;;;;;12.63;4.85;;;;;;;;;;5110093;28;20043;-46
2022/08/15 03:25:49;;;;;;;20.15;6.10;;;;;;;;;;5110193;28;20043;-41
2022/08/15 03:28:19;;;;;;;17.35;4.88;;;;;;;;;;5110105;28;20126;-44
2022/08/15 03:30:44;;;;;;;13.17;3.87;;;;;;;;;;5110013;28;20105;-46
2022/08/15 03:33:10;;;;;;;9.40;5.68;;;;;;;;;;5109769;28;20494;-45
2022/08/15 03:35:40;;;;;;;22.30;4.70;;;;;;;;;;5109044;28;20039;-41
2022/08/15 03:38:05;;;;;;;10.75;4.60;;;;;;;;;;5109973;28;20518;-41
2022/08/15 03:40:32;;;;;;;12.60;4.68;;;;;;;;;;5110020;28;20134;-41
2022/08/15 03:43:01;;;;;;;7.53;4.25;;;;;;;;;;5108484;28;20218;-40
2022/08/15 03:45:27;;;;;;;10.23;3.95;;;;;;;;;;5106753;28;20138;-43
2022/08/15 03:47:53;;;;;;;9.77;4.30;;;;;;;;;;5109235;28;20131;-41
2022/08/15 03:50:18;;;;;;;23.38;8.13;;;;;;;;;;5109646;28;20105;-42
2022/08/15 03:52:48;;;;;;;24.15;4.40;;;;;;;;;;5109705;28;20078;-46
2022/08/15 03:55:14;;;;;;;17.53;4.27;;;;;;;;;;5109059;28;20051;-45
2022/08/15 03:57:39;;;;;;;10.50;3.90;;;;;;;;;;5108862;28;20291;-43
2022/08/15 04:00:07;;;;;;;10.30;3.78;;;;;;;;;;5110022;28;20509;-41
2022/08/15 04:02:32;;;;;;;13.32;3.85;;;;;;;;;;5108622;28;20089;-41
2022/08/15 04:04:57;;;;;;;34.17;6.07;;;;;;;;;;5108506;28;20032;-41
2022/08/15 04:07:23;;;;;;;13.52;5.07;;;;;;;;;;5108187;28;20056;-45
2022/08/15 04:09:48;;;;;;;21.13;3.58;;;;;;;;;;5108470;28;20536;-40
2022/08/15 04:12:27;;;;;;;10.20;4.22;;;;;;;;;;5106963;28;20046;-44
2022/08/15 04:14:53;;;;;;;13.75;4.03;;;;;;;;;;5107949;28;20040;-45
2022/08/15 04:17:19;;;;;;;5.45;3.28;;;;;;;;;;5107715;28;20503;-43
2022/08/15 04:19:45;;;;;;;9.32;6.47;;;;;;;;;;5105882;28;20054;-41
2022/08/15 04:22:10;;;;;;;16.95;4.40;;;;;;;;;;5107386;28;20075;-42
2022/08/15 04:24:35;;;;;;;13.68;4.35;;;;;;;;;;5109360;28;20055;-42
2022/08/15 04:27:01;;;;;;;10.25;4.07;;;;;;;;;;5107745;28;20127;-40
2022/08/15 04:29:26;;;;;;;15.55;3.15;;;;;;;;;;5108411;28;20044;-42
2022/08/15 04:31:54;;;;;;;9.25;4.70;;;;;;;;;;5108242;28;20383;-46
2022/08/15 04:34:19;;;;;;;16.77;3.25;;;;;;;;;;5108588;28;20042;-40
2022/08/15 04:36:46;;;;;;;12.95;3.92;;;;;;;;;;5107136;28;20036;-42
2022/08/15 04:39:11;;;;;;;12.75;4.55;;;;;;;;;;5107579;28;20067;-47
2022/08/15 04:41:37;;;;;;;16.27;5.25;;;;;;;;;;5108076;28;20086;-42
2022/08/15 04:44:06;;;;;;;10.30;5.30;;;;;;;;;;5107606;28;20400;-41
2022/08/15 04:46:31;;;;;;;8.70;2.95;;;;;;;;;;5105837;28;20130;-45
2022/08/15 04:48:57;;;;;;;6.38;2.50;;;;;;;;;;5108437;28;20143;-45
2022/08/15 04:51:22;;;;;;;10.30;3.58;;;;;;;;;;5108367;28;20051;-45
2022/08/15 04:53:47;;;;;;;9.88;4.68;;;;;;;;;;5107579;28;20653;-44
2022/08/15 04:56:12;;;;;;;14.45;4.65;;;;;;;;;;5107251;28;20035;-44
2022/08/15 04:58:38;;;;;;;8.82;3.92;;;;;;;;;;5107969;28;20043;-46
2022/08/15 05:01:07;;;;;;;7.93;3.58;;;;;;;;;;5108422;28;20043;-43
2022/08/15 05:03:33;;;;;;;20.83;5.83;;;;;;;;;;5107309;28;20059;-45
2022/08/15 05:06:00;;;;;;;17.92;5.00;;;;;;;;;;5108908;28;20055;-47
2022/08/15 05:08:27;;;;;;;23.33;5.40;;;;;;;;;;5106666;28;20055;-46
2022/08/15 05:10:54;;;;;;;11.77;4.63;;;;;;;;;;5106111;28;20051;-47
2022/08/15 05:13:25;;;;;;;9.30;5.82;;;;;;;;;;5107849;28;20067;-45
2022/08/15 05:15:50;;;;;;;;;;;;;;;;;;5108885;28;20040;-42
2022/08/15 05:18:15;;;;;;;10.60;5.07;;;;;;;;;;5107763;28;20570;-41
2022/08/15 05:20:41;;;;;;;50.45;20.98;;;;;;;;;;5106778;28;20283;-44
2022/08/15 05:23:09;;;;;;;31.20;17.08;;;;;;;;;;5106557;28;20048;-45
2022/08/15 05:25:35;;;;;;;29.23;14.00;;;;;;;;;;5104499;28;20051;-46
2022/08/15 05:28:01;;;;;;;19.70;8.55;;;;;;;;;;5108230;28;20528;-42
2022/08/15 05:30:26;;;;;;;23.80;7.10;;;;;;;;;;5107057;28;20537;-42
2022/08/15 05:33:05;;;;;;;14.70;6.25;;;;;;;;;;5107653;28;20148;-47
2022/08/15 05:35:31;;;;;;;25.05;7.65;;;;;;;;;;5106868;28;20042;-45
2022/08/15 05:37:58;;;;;;;14.52;6.60;;;;;;;;;;5106711;28;20051;-41
2022/08/15 05:40:24;;;;;;;19.63;5.60;;;;;;;;;;5105215;28;20625;-47
2022/08/15 05:43:18;;;;;;;22.48;6.18;;;;;;;;;;5084629;28;20055;-42
2022/08/15 05:45:49;;;;;;;17.15;6.13;;;;;;;;;;5103471;28;20048;-43
2022/08/15 05:48:16;;;;;;;12.95;6.93;;;;;;;;;;5105857;28;20032;-47
2022/08/15 05:51:05;;;;;;;25.65;6.43;;;;;;;;;;5107531;28;20059;-46
2022/08/15 05:53:41;;;;;;;23.02;7.15;;;;;;;;;;5107317;28;20043;-45
2022/08/15 05:56:15;;;;;;;12.35;4.90;;;;;;;;;;5107233;28;20608;-42
2022/08/15 05:58:45;;;;;;;22.02;7.45;;;;;;;;;;5104016;28;20043;-45
2022/08/15 06:01:13;;;;;;;20.77;4.43;;;;;;;;;;5106563;28;20043;-45
2022/08/15 06:03:40;;;;;;;25.25;5.75;;;;;;;;;;5107477;28;20055;-44
2022/08/15 06:06:09;;;;;;;18.00;5.15;;;;;;;;;;5107234;28;20044;-42
2022/08/15 06:08:36;;;;;;;11.73;4.38;;;;;;;;;;5106778;28;20658;-44
2022/08/15 06:11:03;;;;;;;22.27;6.60;;;;;;;;;;5105100;28;20036;-42
2022/08/15 06:13:39;;;;;;;14.27;5.40;;;;;;;;;;5105765;28;20079;-43
2022/08/15 06:16:06;;;;;;;13.63;6.70;;;;;;;;;;5106171;28;20177;-47
2022/08/15 06:18:33;;;;;;;17.77;6.38;;;;;;;;;;5104730;28;20167;-43
2022/08/15 06:21:17;;;;;;;11.60;5.35;;;;;;;;;;5107001;28;20120;-44
2022/08/15 06:23:51;;;;;;;28.80;5.00;;;;;;;;;;5106789;28;20056;-45
2022/08/15 06:26:24;;;;;;;13.80;4.13;;;;;;;;;;5101902;28;20076;-42
2022/08/15 06:28:55;;;;;;;12.65;3.70;;;;;;;;;;5104646;28;20118;-42
2022/08/15 06:31:21;;;;;;;13.50;4.82;;;;;;;;;;5104997;28;20043;-42
2022/08/15 06:33:46;;;;;;;13.98;3.42;;;;;;;;;;5106268;28;20410;-45
2022/08/15 06:36:21;;;;;;;12.70;4.50;;;;;;;;;;5106175;28;20028;-48
2022/08/15 06:38:55;;;;;;;6.80;2.47;;;;;;;;;;5107811;28;20054;-46
2022/08/15 06:41:27;;;;;;;19.95;7.43;;;;;;;;;;5106985;28;20047;-42
2022/08/15 06:43:53;;;;;;;16.50;4.30;;;;;;;;;;5105712;28;20039;-43
2022/08/15 06:46:21;;;;;;;7.57;4.20;;;;;;;;;;5107978;28;20033;-44
2022/08/15 06:48:47;;;;;;;13.40;3.38;;;;;;;;;;5105285;28;20035;-42
2022/08/15 06:51:12;;;;;;;7.03;2.38;;;;;;;;;;5107433;28;20052;-43
2022/08/15 06:53:40;;;;;;;26.70;3.75;;;;;;;;;;5104902;28;21002;-44
2022/08/15 06:56:06;;;;;;;7.57;3.58;;;;;;;;;;5105400;28;20739;-44
2022/08/15 06:58:44;;;;;;;10.88;4.07;;;;;;;;;;5103589;28;20151;-47
2022/08/15 07:01:17;;;;;;;21.40;6.40;;;;;;;;;;5104100;28;20048;-46
2022/08/15 07:03:59;;;;;;;10.32;3.58;;;;;;;;;;5106184;28;20055;-44
2022/08/15 07:06:51;;;;;;;13.02;3.55;;;;;;;;;;5104490;28;20065;-45
2022/08/15 07:09:35;;;;;;;27.15;5.38;;;;;;;;;;5069695;28;20046;-47
2022/08/15 07:12:00;;;;;;;14.80;4.18;;;;;;;;;;5105454;28;20113;-47
2022/08/15 07:14:39;;;;;;;19.10;3.97;;;;;;;;;;5103652;28;20052;-45
2022/08/15 07:17:15;;;;;;;5.15;2.35;;;;;;;;;;5104657;28;20680;-45
2022/08/15 07:19:41;;;;;;;8.52;2.97;;;;;;;;;;5104679;28;20047;-50
2022/08/15 07:22:06;;;;;;;4.57;2.58;;;;;;;;;;5103782;28;20055;-53
2022/08/15 07:24:32;;;;;;;2.88;1.88;;;;;;;;;;5105185;28;20039;-50
2022/08/15 07:27:04;;;;;;;16.00;2.15;;;;;;;;;;5106331;28;20039;-53
2022/08/15 07:29:32;;;;;;;10.63;4.20;;;;;;;;;;5107333;28;20043;-53
2022/08/15 07:32:07;;;;;;;10.07;3.35;;;;;;;;;;5108068;28;20031;-55
2022/08/15 07:34:32;;;;;;;7.20;2.83;;;;;;;;;;5104940;28;20032;-50
2022/08/15 07:37:02;;;;;;;4.35;3.20;;;;;;;;;;5103914;28;20063;-50
2022/08/15 07:39:38;;;;;;;11.82;5.63;;;;;;;;;;5107861;28;20047;-50
2022/08/15 07:42:32;;;;;;;11.15;3.90;;;;;;;;;;5102912;28;20043;-52
2022/08/15 07:44:59;;;;;;;12.30;2.72;;;;;;;;;;5086939;28;20132;-48
2022/08/15 07:47:26;;;;;;;22.58;3.20;;;;;;;;;;5108576;28;20047;-51
2022/08/15 07:50:01;;;;;;;6.38;3.92;;;;;;;;;;5107589;28;20047;-51
2022/08/15 07:52:26;;;;;;;5.50;3.22;;;;;;;;;;5108752;28;20494;-54
2022/08/15 07:54:53;;;;;;;16.50;3.65;;;;;;;;;;5108512;28;20046;-50
2022/08/15 07:57:25;;;;;;;2.83;0.82;;;;;;;;;;5108089;28;20134;-48
2022/08/15 08:00:09;;;;;;;3.90;2.00;;;;;;;;;;5106143;28;20062;-52
2022/08/15 08:02:50;;;;;;;7.93;4.30;;;;;;;;;;5104665;28;20075;-53
2022/08/15 08:05:15;;;;;;;9.57;4.53;;;;;;;;;;5106451;28;20170;-51
2022/08/15 08:07:46;;;;;;;6.95;2.42;;;;;;;;;;5105470;27;20529;-49
2022/08/15 08:10:17;;;;;;;4.88;2.28;;;;;;;;;;5109558;27;20311;-54
2022/08/15 08:12:43;;;;;;;12.95;4.82;;;;;;;;;;5108419;27;20043;-49
2022/08/15 08:15:17;;;;;;;15.23;3.88;;;;;;;;;;5109529;27;20040;-51
2022/08/15 08:17:45;;;;;;;5.88;2.72;;;;;;;;;;5108941;27;20038;-50
2022/08/15 08:20:20;;;;;;;6.63;3.08;;;;;;;;;;5107833;27;20078;-52
2022/08/15 08:23:01;;;;;;;8.07;4.30;;;;;;;;;;5106771;28;20039;-51
2022/08/15 08:25:29;;;;;;;4.47;2.80;;;;;;;;;;5107553;28;20055;-53
2022/08/15 08:28:01;;;;;;;13.00;2.33;;;;;;;;;;5108201;28;20086;-50
2022/08/15 08:30:36;;;;;;;14.63;3.90;;;;;;;;;;5102417;28;20118;-53
2022/08/15 08:33:10;;;;;;;13.95;5.40;;;;;;;;;;5105839;28;20568;-52
2022/08/15 08:35:44;;;;;;;2.08;1.63;;;;;;;;;;5105599;28;20059;-52
2022/08/15 08:38:15;;;;;;;2.38;1.25;;;;;;;;;;5105915;28;20032;-49
2022/08/15 08:43:41;;;;;;;4.90;3.38;;;;;;;;;;5106660;28;20129;-51
2022/08/15 08:46:15;;;;;;;8.55;3.00;;;;;;;;;;5104382;28;20056;-53
2022/08/15 08:48:44;;;;;;;4.00;3.03;;;;;;;;;;5105842;28;20130;-49
2022/08/15 08:51:27;;;;;;;8.32;3.85;;;;;;;;;;5106489;28;20046;-52
2022/08/15 08:54:08;;;;;;;6.70;3.03;;;;;;;;;;5105128;28;20407;-51
2022/08/15 08:56:44;;;;;;;3.90;2.33;;;;;;;;;;5107699;28;20535;-52
2022/08/15 08:59:09;;;;;;;8.88;2.38;;;;;;;;;;5107191;28;20255;-53
2022/08/15 09:01:36;;;;;;;5.90;3.20;;;;;;;;;;5106479;28;20498;-54
2022/08/15 09:04:06;;;;;;;10.18;3.25;;;;;;;;;;5106386;27;20494;-53
2022/08/15 09:06:36;;;;;;;16.98;3.78;;;;;;;;;;5103705;27;20116;-52
2022/08/15 09:09:31;;;;;;;7.67;1.90;;;;;;;;;;5105855;28;20031;-54
2022/08/15 09:11:56;;;;;;;6.85;3.25;;;;;;;;;;5084025;28;20283;-50
2022/08/15 09:14:24;;;;;;;8.85;2.10;;;;;;;;;;5106505;28;20054;-52
2022/08/15 09:16:51;;;;;;;7.68;3.15;;;;;;;;;;5107247;28;20047;-49
2022/08/15 09:19:26;;;;;;;5.32;2.08;;;;;;;;;;5103502;27;20043;-49
2022/08/15 09:21:51;;;;;;;6.90;2.72;;;;;;;;;;5101349;28;20074;-51
2022/08/15 09:24:19;;;;;;;7.38;2.58;;;;;;;;;;5102731;28;20133;-51
2022/08/15 09:26:53;;;;;;;5.53;2.85;;;;;;;;;;5102738;28;20053;-48
2022/08/15 09:29:28;;;;;;;8.15;2.67;;;;;;;;;;5103911;28;20043;-50
2022/08/15 09:32:12;;;;;;;5.88;1.52;;;;;;;;;;5102606;28;20052;-52
2022/08/15 09:34:44;;;;;;;4.93;2.65;;;;;;;;;;5105350;28;20030;-48
2022/08/15 09:37:09;;;;;;;15.65;5.45;;;;;;;;;;5106023;28;20054;-48
2022/08/15 09:39:47;;;;;;;6.15;3.63;;;;;;;;;;5106537;28;20444;-47
2022/08/15 09:42:25;;;;;;;13.68;3.38;;;;;;;;;;5104904;28;20051;-48
2022/08/15 09:44:53;;;;;;;3.30;1.33;;;;;;;;;;5104190;28;20047;-50
2022/08/15 09:47:25;;;;;;;6.47;2.50;;;;;;;;;;5105789;28;20051;-49
2022/08/15 09:50:05;;;;;;;13.40;3.65;;;;;;;;;;5104459;28;20155;-47
2022/08/15 09:52:49;;;;;;;17.48;4.75;;;;;;;;;;5103154;28;20127;-50
2022/08/15 09:55:18;;;;;;;14.43;4.88;;;;;;;;;;5105882;28;20932;-51
2022/08/15 09:57:49;;;;;;;7.57;3.40;;;;;;;;;;5104424;28;20124;-53
2022/08/15 10:00:17;;;;;;;16.75;4.30;;;;;;;;;;5104300;28;20043;-50
2022/08/15 10:02:46;;;;;;;6.70;4.00;;;;;;;;;;5102181;28;20051;-50
2022/08/15 10:05:14;;;;;;;2.78;1.40;;;;;;;;;;5104415;28;20040;-51
2022/08/15 10:07:48;;;;;;;11.63;4.35;;;;;;;;;;5104440;28;20275;-45
2022/08/15 10:10:19;;;;;;;13.93;3.53;;;;;;;;;;5102470;28;20047;-55
2022/08/15 10:13:03;;;;;;;8.25;3.92;;;;;;;;;;5103142;28;20051;-49
2022/08/15 10:15:49;;;;;;;11.40;3.65;;;;;;;;;;5105835;28;20040;-48
2022/08/15 10:18:23;;;;;;;3.85;1.95;;;;;;;;;;5103158;28;20646;-50
2022/08/15 10:20:51;;;;;;;7.70;3.95;;;;;;;;;;5103652;28;20107;-47
2022/08/15 10:23:16;;;;;;;7.38;3.33;;;;;;;;;;5103040;28;20154;-47
2022/08/15 10:25:48;;;;;;;8.15;4.18;;;;;;;;;;5104183;28;20485;-53
2022/08/15 10:28:13;;;;;;;25.33;6.75;;;;;;;;;;5102838;28;20048;-48
2022/08/15 10:30:58;;;;;;;9.50;4.03;;;;;;;;;;5102556;28;20678;-47
2022/08/15 10:33:35;;;;;;;15.18;4.88;;;;;;;;;;5102423;28;20066;-48
2022/08/15 10:36:13;;;;;;;18.27;7.05;;;;;;;;;;5105628;28;20068;-50
2022/08/15 10:38:40;;;;;;;2.85;1.85;;;;;;;;;;5105470;28;20035;-47
2022/08/15 10:41:14;;;;;;;5.43;2.97;;;;;;;;;;5105418;28;20039;-49
2022/08/15 10:43:52;;;;;;;7.68;3.78;;;;;;;;;;5103971;28;20173;-49
2022/08/15 10:46:20;;;;;;;11.98;5.10;;;;;;;;;;5101569;28;20081;-52
2022/08/15 10:49:01;;;;;;;5.13;3.40;;;;;;;;;;5105780;28;20044;-49
2022/08/15 10:51:40;;;;;;;13.88;8.50;;;;;;;;;;5103490;28;20498;-48
2022/08/15 10:54:09;;;;;;;15.43;6.22;;;;;;;;;;5102612;28;20038;-52
2022/08/15 10:56:38;;;;;;;6.82;2.08;;;;;;;;;;5102635;28;20054;-50
2022/08/15 10:59:06;;;;;;;16.20;6.63;;;;;;;;;;5102440;28;20497;-49
2022/08/15 11:01:33;;;;;;;10.88;5.05;;;;;;;;;;5103905;28;20036;-50
2022/08/15 11:04:07;;;;;;;11.95;5.32;;;;;;;;;;5105139;28;20072;-50
2022/08/15 11:06:39;;;;;;;3.85;2.35;;;;;;;;;;5103091;28;20040;-53
2022/08/15 11:09:07;;;;;;;4.57;2.47;;;;;;;;;;5102404;28;20152;-49
2022/08/15 11:11:37;;;;;;;8.73;3.10;;;;;;;;;;5104415;28;20117;-49
2022/08/15 11:14:02;;;;;;;;;;;;;;;;;;5103467;28;20134;-48
2022/08/15 11:16:35;;;;;;;13.07;4.20;;;;;;;;;;5107238;28;20014;-50
2022/08/15 11:19:11;;;;;;;4.32;1.45;;;;;;;;;;5107628;28;20309;-52
2022/08/15 11:21:46;;;;;;;12.60;4.00;;;;;;;;;;5108302;28;20040;-46
2022/08/15 11:24:12;;;;;;;3.55;2.33;;;;;;;;;;5108894;28;20053;-51
2022/08/15 11:26:39;;;;;;;11.60;2.92;;;;;;;;;;5108979;28;20043;-50
2022/08/15 11:29:15;;;;;;;10.80;4.05;;;;;;;;;;5106986;28;20039;-52
2022/08/15 11:31:43;;;;;;;4.65;2.38;;;;;;;;;;5108626;28;20079;-48
2022/08/15 11:34:24;;;;;;;4.78;2.33;;;;;;;;;;5109158;28;20035;-52
2022/08/15 11:36:50;;;;;;;5.25;3.83;;;;;;;;;;5106869;28;20123;-47
2022/08/15 11:39:16;;;;;;;8.23;5.10;;;;;;;;;;5106809;28;20126;-53
2022/08/15 11:41:45;;;;;;;14.90;6.07;;;;;;;;;;5108827;28;20169;-52
2022/08/15 11:44:11;;;;;;;7.47;4.45;;;;;;;;;;5105860;28;20045;-52
2022/08/15 11:46:37;;;;;;;11.38;4.68;;;;;;;;;;5107191;28;20405;-52
2022/08/15 11:49:07;;;;;;;10.20;4.55;;;;;;;;;;5104916;28;20107;-50
2022/08/15 11:51:39;;;;;;;10.23;5.53;;;;;;;;;;5106789;28;20071;-49
2022/08/15 11:54:10;;;;;;;8.55;4.03;;;;;;;;;;5103543;28;20161;-51
2022/08/15 11:56:50;;;;;;;12.90;6.15;;;;;;;;;;5087583;28;20054;-46
2022/08/15 11:59:24;;;;;;;9.25;4.35;;;;;;;;;;5107378;28;20503;-48
2022/08/15 12:02:00;;;;;;;18.98;4.82;;;;;;;;;;5107396;28;20035;-50
2022/08/15 12:04:31;;;;;;;11.55;3.00;;;;;;;;;;5103133;28;20077;-48
2022/08/15 12:06:57;;;;;;;9.48;4.93;;;;;;;;;;5105822;28;20554;-49
2022/08/15 12:09:26;;;;;;;5.13;3.35;;;;;;;;;;5107091;28;20063;-53
2022/08/15 12:11:52;;;;;;;11.70;3.55;;;;;;;;;;5107219;28;20035;-52
2022/08/15 12:14:24;;;;;;;9.43;4.10;;;;;;;;;;5107069;28;20142;-49
2022/08/15 12:16:51;;;;;;;5.03;3.03;;;;;;;;;;5105098;28;20065;-46
2022/08/15 12:19:35;;;;;;;10.00;3.58;;;;;;;;;;5107617;28;20043;-48
2022/08/15 12:22:02;;;;;;;8.23;4.05;;;;;;;;;;5104956;28;20118;-50
2022/08/15 12:24:31;;;;;;;13.77;5.95;;;;;;;;;;5105795;28;20127;-47
2022/08/15 12:27:01;;;;;;;8.48;3.05;;;;;;;;;;5097693;28;20052;-43
2022/08/15 12:29:28;;;;;;;6.05;3.58;;;;;;;;;;5107239;28;20047;-52
2022/08/15 12:31:54;;;;;;;13.82;1.73;;;;;;;;;;5106484;28;20044;-48
2022/08/15 12:34:21;;;;;;;7.15;3.28;;;;;;;;;;5105065;28;20039;-44
2022/08/15 12:36:46;;;;;;;8.75;5.75;;;;;;;;;;5106385;28;20032;-44
2022/08/15 12:39:13;;;;;;;4.97;3.70;;;;;;;;;;5107653;28;20051;-44
2022/08/15 12:41:39;;;;;;;9.68;5.20;;;;;;;;;;5105430;28;20054;-42
2022/08/15 12:44:06;;;;;;;5.13;2.58;;;;;;;;;;5106054;28;20040;-53
2022/08/15 12:46:33;;;;;;;6.40;4.63;;;;;;;;;;5106239;28;20036;-47
2022/08/15 12:48:58;;;;;;;4.60;2.97;;;;;;;;;;5105886;28;20048;-46
2022/08/15 12:51:25;;;;;;;5.50;1.88;;;;;;;;;;5104840;28;20043;-46
2022/08/15 12:53:52;;;;;;;12.73;3.60;;;;;;;;;;5105410;28;20620;-46
2022/08/15 12:56:19;;;;;;;10.57;5.32;;;;;;;;;;5106621;28;20105;-49
2022/08/15 12:58:45;;;;;;;14.50;3.08;;;;;;;;;;5107114;28;20188;-49
2022/08/15 13:01:10;;;;;;;10.32;3.50;;;;;;;;;;5107738;28;20502;-51
2022/08/15 13:03:40;;;;;;;11.88;3.88;;;;;;;;;;5102063;28;20036;-48
2022/08/15 13:06:10;;;;;;;6.07;2.90;;;;;;;;;;5104001;28;20043;-50
2022/08/15 13:08:36;;;;;;;9.05;3.30;;;;;;;;;;5105267;28;20054;-49
2022/08/15 13:11:02;;;;;;;12.98;5.07;;;;;;;;;;5105007;28;20043;-43
2022/08/15 13:13:27;;;;;;;19.58;4.25;;;;;;;;;;5106701;28;20447;-48
2022/08/15 13:15:52;;;;;;;4.43;3.28;;;;;;;;;;5105621;28;20039;-46
2022/08/15 13:18:20;;;;;;;4.13;2.33;;;;;;;;;;5104194;28;20626;-47
2022/08/15 13:23:40;;;;;;;7.70;3.70;;;;;;;;;;5103054;28;20054;-46
2022/08/15 13:26:11;;;;;;;3.15;2.20;;;;;;;;;;5102316;28;20478;-43
2022/08/15 13:28:38;;;;;;;11.65;5.07;;;;;;;;;;5103142;28;20129;-49
2022/08/15 13:31:03;;;;;;;7.63;3.90;;;;;;;;;;5102386;28;20126;-43
2022/08/15 13:33:31;;;;;;;9.13;5.68;;;;;;;;;;5105307;28;20134;-49
2022/08/15 13:35:57;;;;;;;14.60;5.03;;;;;;;;;;5105603;27;20039;-50
2022/08/15 13:38:25;;;;;;;12.52;4.25;;;;;;;;;;5104449;28;20036;-49
2022/08/15 13:40:51;;;;;;;7.57;3.97;;;;;;;;;;5106233;27;20055;-45
2022/08/15 13:43:17;;;;;;;11.57;1.48;;;;;;;;;;5101489;27;20035;-43
2022/08/15 13:45:43;;;;;;;6.28;4.85;;;;;;;;;;5104081;28;21019;-47
2022/08/15 13:48:09;;;;;;;13.70;4.10;;;;;;;;;;5104422;28;20517;-45
2022/08/15 13:50:35;;;;;;;5.60;3.63;;;;;;;;;;5105401;28;20403;-45
2022/08/15 13:53:01;;;;;;;10.43;4.03;;;;;;;;;;5106741;27;20024;-46
2022/08/15 13:55:26;;;;;;;10.10;2.55;;;;;;;;;;5108529;27;20520;-43
2022/08/15 13:57:51;;;;;;;14.82;4.63;;;;;;;;;;5104344;27;20494;-45
2022/08/15 14:00:17;;;;;;;5.45;4.35;;;;;;;;;;5104646;27;20534;-46
2022/08/15 14:02:43;;;;;;;12.27;5.80;;;;;;;;;;5104759;28;20105;-47
2022/08/15 14:05:10;;;;;;;10.93;3.47;;;;;;;;;;5105786;28;20047;-47
2022/08/15 14:07:35;;;;;;;4.35;1.60;;;;;;;;;;5104976;28;20039;-47
2022/08/15 14:10:01;;;;;;;4.90;2.20;;;;;;;;;;5105752;28;20047;-45
2022/08/15 14:12:26;;;;;;;10.27;3.13;;;;;;;;;;5083572;28;20118;-47
2022/08/15 14:14:52;;;;;;;15.68;4.28;;;;;;;;;;5106020;28;20051;-48
2022/08/15 14:17:18;;;;;;;3.70;2.40;;;;;;;;;;5105666;28;20134;-43
2022/08/15 14:19:43;;;;;;;7.18;4.88;;;;;;;;;;5104881;28;20081;-47
2022/08/15 14:22:09;;;;;;;8.07;3.05;;;;;;;;;;5104247;28;20469;-44
2022/08/15 14:24:34;;;;;;;13.20;4.70;;;;;;;;;;5105065;28;20471;-44
2022/08/15 14:27:01;;;;;;;6.32;2.83;;;;;;;;;;5105500;28;20078;-50
2022/08/15 14:29:52;;;;;;;9.13;3.20;;;;;;;;;;5105663;28;20457;-48
2022/08/15 14:32:19;;;;;;;4.45;2.25;;;;;;;;;;5100131;28;20123;-48
2022/08/15 14:34:45;;;;;;;9.43;4.43;;;;;;;;;;5104091;28;20173;-51
2022/08/15 14:37:14;;;;;;;5.72;2.83;;;;;;;;;;5102073;28;20039;-47
2022/08/15 14:39:39;;;;;;;10.35;4.70;;;;;;;;;;5104840;28;20028;-51
2022/08/15 14:42:05;;;;;;;2.70;2.10;;;;;;;;;;5105851;28;20658;-52
2022/08/15 14:44:30;;;;;;;9.48;2.35;;;;;;;;;;5105492;28;20562;-51
2022/08/15 14:46:56;;;;;;;10.90;4.35;;;;;;;;;;5105602;28;20128;-50
2022/08/15 14:49:21;;;;;;;8.35;3.58;;;;;;;;;;5106450;28;20438;-46
2022/08/15 14:51:47;;;;;;;4.13;2.45;;;;;;;;;;5107438;28;20239;-49
2022/08/15 14:54:16;;;;;;;13.80;3.95;;;;;;;;;;5108871;28;20062;-49